sensor_id;sensor_type;location;lat;lon;timestamp;pressure;altitude;pressure_sealevel;temperature;humidity
69850;BME280;57144;39.652;-75.770;2022-08-21T00:01:47;101162.86;;;24.66;64.26
69850;BME280;57144;39.652;-75.770;2022-08-21T00:04:18;101165.40;;;24.92;63.40
69850;BME280;57144;39.652;-75.770;2022-08-21T00:06:49;101165.00;;;24.55;64.71
69850;BME280;57144;39.652;-75.770;2022-08-21T00:09:19;101165.13;;;24.65;64.17
69850;BME280;57144;39.652;-75.770;2022-08-21T00:11:49;101170.44;;;24.55;64.67
69850;BME280;57144;39.652;-75.770;2022-08-21T00:14:20;101175.34;;;23.89;66.97
69850;BME280;57144;39.652;-75.770;2022-08-21T00:16:51;101179.76;;;24.48;65.30
69850;BME280;57144;39.652;-75.770;2022-08-21T00:19:21;101183.43;;;24.47;65.38
69850;BME280;57144;39.652;-75.770;2022-08-21T00:21:53;101184.26;;;23.97;67.24
69850;BME280;57144;39.652;-75.770;2022-08-21T00:24:23;101189.83;;;24.37;66.20
69850;BME280;57144;39.652;-75.770;2022-08-21T00:26:53;101191.36;;;24.03;67.22
69850;BME280;57144;39.652;-75.770;2022-08-21T00:29:23;101195.92;;;24.35;66.23
69850;BME280;57144;39.652;-75.770;2022-08-21T00:31:54;101196.23;;;24.29;66.69
69850;BME280;57144;39.652;-75.770;2022-08-21T00:34:25;101198.20;;;24.20;67.36
69850;BME280;57144;39.652;-75.770;2022-08-21T00:36:55;101199.13;;;24.32;67.21
69850;BME280;57144;39.652;-75.770;2022-08-21T00:39:26;101190.28;;;24.13;68.34
69850;BME280;57144;39.652;-75.770;2022-08-21T00:41:56;101191.36;;;24.15;68.30
69850;BME280;57144;39.652;-75.770;2022-08-21T00:44:27;101194.38;;;24.21;68.15
69850;BME280;57144;39.652;-75.770;2022-08-21T00:46:57;101195.64;;;24.12;69.06
69850;BME280;57144;39.652;-75.770;2022-08-21T00:49:28;101198.80;;;23.61;70.86
69850;BME280;57144;39.652;-75.770;2022-08-21T00:52:00;101202.51;;;23.81;70.94
69850;BME280;57144;39.652;-75.770;2022-08-21T00:54:31;101206.44;;;23.84;71.39
69850;BME280;57144;39.652;-75.770;2022-08-21T00:57:07;101211.24;;;23.67;72.45
69850;BME280;57144;39.652;-75.770;2022-08-21T00:59:35;101215.39;;;23.88;72.07
69850;BME280;57144;39.652;-75.770;2022-08-21T01:02:02;101219.97;;;24.01;71.98
69850;BME280;57144;39.652;-75.770;2022-08-21T01:04:32;101219.30;;;23.77;73.22
69850;BME280;57144;39.652;-75.770;2022-08-21T01:07:02;101223.19;;;23.22;75.98
69850;BME280;57144;39.652;-75.770;2022-08-21T01:09:33;101230.38;;;23.05;77.09
69850;BME280;57144;39.652;-75.770;2022-08-21T01:12:04;101236.42;;;23.19;76.50
69850;BME280;57144;39.652;-75.770;2022-08-21T01:14:34;101239.87;;;23.12;77.00
69850;BME280;57144;39.652;-75.770;2022-08-21T01:17:05;101237.04;;;23.36;76.82
69850;BME280;57144;39.652;-75.770;2022-08-21T01:19:35;101231.64;;;23.37;77.39
69850;BME280;57144;39.652;-75.770;2022-08-21T01:22:06;101230.32;;;23.29;78.41
69850;BME280;57144;39.652;-75.770;2022-08-21T01:24:37;101229.13;;;23.23;79.23
69850;BME280;57144;39.652;-75.770;2022-08-21T01:27:07;101229.80;;;23.17;80.64
69850;BME280;57144;39.652;-75.770;2022-08-21T01:29:41;101233.56;;;23.26;80.63
69850;BME280;57144;39.652;-75.770;2022-08-21T01:32:10;101232.77;;;23.28;80.85
69850;BME280;57144;39.652;-75.770;2022-08-21T01:34:42;101231.23;;;23.05;82.45
69850;BME280;57144;39.652;-75.770;2022-08-21T01:37:10;101234.04;;;23.04;82.69
69850;BME280;57144;39.652;-75.770;2022-08-21T01:39:40;101232.08;;;23.01;83.20
69850;BME280;57144;39.652;-75.770;2022-08-21T01:42:10;101229.77;;;23.00;83.86
69850;BME280;57144;39.652;-75.770;2022-08-21T01:44:42;101225.20;;;23.02;84.17
69850;BME280;57144;39.652;-75.770;2022-08-21T01:47:14;101223.23;;;22.54;86.69
69850;BME280;57144;39.652;-75.770;2022-08-21T01:49:42;101226.27;;;22.89;85.48
69850;BME280;57144;39.652;-75.770;2022-08-21T01:52:13;101231.84;;;22.73;86.74
69850;BME280;57144;39.652;-75.770;2022-08-21T01:54:43;101231.80;;;22.99;85.86
69850;BME280;57144;39.652;-75.770;2022-08-21T01:57:14;101226.58;;;22.83;86.94
69850;BME280;57144;39.652;-75.770;2022-08-21T01:59:44;101220.26;;;22.85;87.39
69850;BME280;57144;39.652;-75.770;2022-08-21T02:02:14;101215.78;;;22.71;88.16
69850;BME280;57144;39.652;-75.770;2022-08-21T02:04:45;101216.27;;;22.65;88.86
69850;BME280;57144;39.652;-75.770;2022-08-21T02:07:15;101214.15;;;22.60;89.46
69850;BME280;57144;39.652;-75.770;2022-08-21T02:09:46;101212.93;;;22.63;89.54
69850;BME280;57144;39.652;-75.770;2022-08-21T02:12:17;101216.50;;;22.61;89.69
69850;BME280;57144;39.652;-75.770;2022-08-21T02:14:47;101214.95;;;22.55;90.59
69850;BME280;57144;39.652;-75.770;2022-08-21T02:17:17;101213.58;;;22.28;92.14
69850;BME280;57144;39.652;-75.770;2022-08-21T02:19:48;101207.31;;;22.47;91.64
69850;BME280;57144;39.652;-75.770;2022-08-21T02:22:18;101197.07;;;22.17;93.00
69850;BME280;57144;39.652;-75.770;2022-08-21T02:24:49;101188.30;;;22.34;92.71
69850;BME280;57144;39.652;-75.770;2022-08-21T02:27:20;101183.72;;;22.45;92.54
69850;BME280;57144;39.652;-75.770;2022-08-21T02:29:50;101188.15;;;22.37;93.07
69850;BME280;57144;39.652;-75.770;2022-08-21T02:32:21;101187.51;;;22.11;94.49
69850;BME280;57144;39.652;-75.770;2022-08-21T02:34:51;101185.44;;;22.10;95.17
69850;BME280;57144;39.652;-75.770;2022-08-21T02:37:22;101183.83;;;22.40;93.69
69850;BME280;57144;39.652;-75.770;2022-08-21T02:39:52;101184.91;;;22.25;94.74
69850;BME280;57144;39.652;-75.770;2022-08-21T02:42:23;101189.86;;;22.33;94.85
69850;BME280;57144;39.652;-75.770;2022-08-21T02:44:54;101195.15;;;22.37;94.54
69850;BME280;57144;39.652;-75.770;2022-08-21T02:47:24;101199.01;;;21.87;97.39
69850;BME280;57144;39.652;-75.770;2022-08-21T02:49:55;101197.88;;;21.76;96.79
69850;BME280;57144;39.652;-75.770;2022-08-21T02:52:25;101196.05;;;21.90;97.80
69850;BME280;57144;39.652;-75.770;2022-08-21T02:54:56;101198.26;;;21.94;98.47
69850;BME280;57144;39.652;-75.770;2022-08-21T02:57:26;101195.00;;;22.18;97.20
69850;BME280;57144;39.652;-75.770;2022-08-21T02:59:57;101194.11;;;22.08;97.54
69850;BME280;57144;39.652;-75.770;2022-08-21T03:02:27;101191.74;;;22.05;97.91
69850;BME280;57144;39.652;-75.770;2022-08-21T03:04:58;101191.49;;;21.46;100.00
69850;BME280;57144;39.652;-75.770;2022-08-21T03:07:29;101190.92;;;21.92;99.11
69850;BME280;57144;39.652;-75.770;2022-08-21T03:09:59;101193.00;;;21.49;100.00
69850;BME280;57144;39.652;-75.770;2022-08-21T03:12:30;101200.95;;;21.26;100.00
69850;BME280;57144;39.652;-75.770;2022-08-21T03:15:01;101208.43;;;21.21;100.00
69850;BME280;57144;39.652;-75.770;2022-08-21T03:17:31;101209.97;;;21.37;100.00
69850;BME280;57144;39.652;-75.770;2022-08-21T03:20:03;101204.82;;;21.71;99.90
69850;BME280;57144;39.652;-75.770;2022-08-21T03:22:32;101197.96;;;21.88;98.94
69850;BME280;57144;39.652;-75.770;2022-08-21T03:25:03;101197.36;;;21.67;100.00
69850;BME280;57144;39.652;-75.770;2022-08-21T03:27:33;101199.29;;;21.81;99.73
69850;BME280;57144;39.652;-75.770;2022-08-21T03:30:06;101211.26;;;21.04;100.00
69850;BME280;57144;39.652;-75.770;2022-08-21T03:32:34;101209.19;;;21.67;100.00
69850;BME280;57144;39.652;-75.770;2022-08-21T03:35:05;101202.99;;;21.67;100.00
69850;BME280;57144;39.652;-75.770;2022-08-21T03:37:35;101197.33;;;21.73;100.00
69850;BME280;57144;39.652;-75.770;2022-08-21T03:40:07;101195.65;;;21.81;100.00
69850;BME280;57144;39.652;-75.770;2022-08-21T03:42:36;101199.81;;;20.72;100.00
69850;BME280;57144;39.652;-75.770;2022-08-21T03:45:09;101196.31;;;21.49;100.00
69850;BME280;57144;39.652;-75.770;2022-08-21T03:47:37;101197.26;;;21.46;100.00
69850;BME280;57144;39.652;-75.770;2022-08-21T03:50:08;101195.27;;;21.56;100.00
69850;BME280;57144;39.652;-75.770;2022-08-21T03:52:38;101192.36;;;21.55;100.00
69850;BME280;57144;39.652;-75.770;2022-08-21T03:55:08;101192.66;;;21.38;100.00
69850;BME280;57144;39.652;-75.770;2022-08-21T03:57:39;101196.07;;;21.27;100.00
69850;BME280;57144;39.652;-75.770;2022-08-21T04:00:11;101194.37;;;21.08;100.00
69850;BME280;57144;39.652;-75.770;2022-08-21T04:02:41;101196.72;;;21.04;100.00
69850;BME280;57144;39.652;-75.770;2022-08-21T04:05:11;101199.57;;;20.92;100.00
69850;BME280;57144;39.652;-75.770;2022-08-21T04:07:41;101201.29;;;21.31;100.00
69850;BME280;57144;39.652;-75.770;2022-08-21T04:10:12;101199.68;;;21.27;100.00
69850;BME280;57144;39.652;-75.770;2022-08-21T04:12:42;101198.82;;;21.14;100.00
69850;BME280;57144;39.652;-75.770;2022-08-21T04:15:13;101195.13;;;21.46;100.00
69850;BME280;57144;39.652;-75.770;2022-08-21T04:17:43;101195.47;;;21.32;100.00
69850;BME280;57144;39.652;-75.770;2022-08-21T04:20:14;101196.46;;;21.26;100.00
69850;BME280;57144;39.652;-75.770;2022-08-21T04:22:44;101197.61;;;21.23;100.00
69850;BME280;57144;39.652;-75.770;2022-08-21T04:25:15;101194.12;;;21.32;100.00
69850;BME280;57144;39.652;-75.770;2022-08-21T04:27:45;101188.21;;;21.29;100.00
69850;BME280;57144;39.652;-75.770;2022-08-21T04:30:16;101187.50;;;21.24;100.00
69850;BME280;57144;39.652;-75.770;2022-08-21T04:32:48;101190.82;;;21.30;100.00
69850;BME280;57144;39.652;-75.770;2022-08-21T04:35:19;101192.92;;;20.70;100.00
69850;BME280;57144;39.652;-75.770;2022-08-21T04:37:47;101190.58;;;20.85;100.00
69850;BME280;57144;39.652;-75.770;2022-08-21T04:40:20;101189.03;;;21.18;100.00
69850;BME280;57144;39.652;-75.770;2022-08-21T04:42:50;101188.43;;;20.91;100.00
69850;BME280;57144;39.652;-75.770;2022-08-21T04:45:22;101185.81;;;20.79;100.00
69850;BME280;57144;39.652;-75.770;2022-08-21T04:47:51;101177.81;;;21.06;100.00
69850;BME280;57144;39.652;-75.770;2022-08-21T04:50:23;101179.03;;;20.64;100.00
69850;BME280;57144;39.652;-75.770;2022-08-21T04:52:51;101180.89;;;20.39;100.00
69850;BME280;57144;39.652;-75.770;2022-08-21T04:55:22;101180.35;;;20.29;100.00
69850;BME280;57144;39.652;-75.770;2022-08-21T04:57:52;101179.24;;;20.09;100.00
69850;BME280;57144;39.652;-75.770;2022-08-21T05:00:23;101178.70;;;20.45;100.00
69850;BME280;57144;39.652;-75.770;2022-08-21T05:02:55;101179.31;;;20.80;100.00
69850;BME280;57144;39.652;-75.770;2022-08-21T05:05:24;101174.07;;;20.91;100.00
69850;BME280;57144;39.652;-75.770;2022-08-21T05:07:56;101173.51;;;20.68;100.00
69850;BME280;57144;39.652;-75.770;2022-08-21T05:10:26;101170.97;;;20.31;100.00
69850;BME280;57144;39.652;-75.770;2022-08-21T05:12:55;101166.65;;;20.43;100.00
69850;BME280;57144;39.652;-75.770;2022-08-21T05:15:27;101163.07;;;20.44;100.00
69850;BME280;57144;39.652;-75.770;2022-08-21T05:17:57;101164.89;;;20.73;100.00
69850;BME280;57144;39.652;-75.770;2022-08-21T05:20:28;101168.84;;;20.11;100.00
69850;BME280;57144;39.652;-75.770;2022-08-21T05:22:58;101168.63;;;20.60;100.00
69850;BME280;57144;39.652;-75.770;2022-08-21T05:25:28;101167.19;;;20.63;100.00
69850;BME280;57144;39.652;-75.770;2022-08-21T05:27:59;101162.69;;;20.61;100.00
69850;BME280;57144;39.652;-75.770;2022-08-21T05:30:30;101159.83;;;20.75;100.00
69850;BME280;57144;39.652;-75.770;2022-08-21T05:33:02;101156.16;;;20.65;100.00
69850;BME280;57144;39.652;-75.770;2022-08-21T05:35:32;101154.36;;;20.70;100.00
69850;BME280;57144;39.652;-75.770;2022-08-21T05:38:02;101150.58;;;20.75;100.00
69850;BME280;57144;39.652;-75.770;2022-08-21T05:40:32;101151.38;;;20.78;100.00
69850;BME280;57144;39.652;-75.770;2022-08-21T05:43:03;101147.82;;;20.71;100.00
69850;BME280;57144;39.652;-75.770;2022-08-21T05:45:33;101138.87;;;20.60;100.00
69850;BME280;57144;39.652;-75.770;2022-08-21T05:48:06;101134.37;;;20.63;100.00
69850;BME280;57144;39.652;-75.770;2022-08-21T05:50:35;101138.80;;;20.50;100.00
69850;BME280;57144;39.652;-75.770;2022-08-21T05:53:05;101141.05;;;20.56;100.00
69850;BME280;57144;39.652;-75.770;2022-08-21T05:55:36;101138.09;;;20.07;100.00
69850;BME280;57144;39.652;-75.770;2022-08-21T05:58:06;101137.95;;;20.47;100.00
69850;BME280;57144;39.652;-75.770;2022-08-21T06:00:36;101138.35;;;20.49;100.00
69850;BME280;57144;39.652;-75.770;2022-08-21T06:03:11;101134.70;;;20.54;100.00
69850;BME280;57144;39.652;-75.770;2022-08-21T06:05:38;101132.35;;;20.44;100.00
69850;BME280;57144;39.652;-75.770;2022-08-21T06:08:08;101128.54;;;20.53;100.00
69850;BME280;57144;39.652;-75.770;2022-08-21T06:10:39;101129.20;;;20.54;100.00
69850;BME280;57144;39.652;-75.770;2022-08-21T06:13:10;101131.83;;;20.59;100.00
69850;BME280;57144;39.652;-75.770;2022-08-21T06:15:40;101127.86;;;20.61;100.00
69850;BME280;57144;39.652;-75.770;2022-08-21T06:18:11;101124.74;;;20.35;100.00
69850;BME280;57144;39.652;-75.770;2022-08-21T06:20:41;101125.49;;;20.38;100.00
69850;BME280;57144;39.652;-75.770;2022-08-21T06:23:11;101128.77;;;20.17;100.00
69850;BME280;57144;39.652;-75.770;2022-08-21T06:25:42;101135.49;;;20.36;100.00
69850;BME280;57144;39.652;-75.770;2022-08-21T06:28:13;101139.00;;;20.28;100.00
69850;BME280;57144;39.652;-75.770;2022-08-21T06:30:43;101139.92;;;20.27;100.00
69850;BME280;57144;39.652;-75.770;2022-08-21T06:33:14;101142.14;;;19.89;100.00
69850;BME280;57144;39.652;-75.770;2022-08-21T06:35:44;101143.50;;;20.09;100.00
69850;BME280;57144;39.652;-75.770;2022-08-21T06:38:15;101144.06;;;20.18;100.00
69850;BME280;57144;39.652;-75.770;2022-08-21T06:40:46;101141.73;;;20.19;100.00
69850;BME280;57144;39.652;-75.770;2022-08-21T06:43:17;101144.05;;;20.16;100.00
69850;BME280;57144;39.652;-75.770;2022-08-21T06:45:47;101141.95;;;20.16;100.00
69850;BME280;57144;39.652;-75.770;2022-08-21T06:48:17;101142.02;;;20.16;100.00
69850;BME280;57144;39.652;-75.770;2022-08-21T06:50:48;101142.32;;;19.78;100.00
69850;BME280;57144;39.652;-75.770;2022-08-21T06:53:20;101147.26;;;19.86;100.00
69850;BME280;57144;39.652;-75.770;2022-08-21T06:55:49;101147.74;;;20.20;100.00
69850;BME280;57144;39.652;-75.770;2022-08-21T06:58:19;101147.33;;;20.26;100.00
69850;BME280;57144;39.652;-75.770;2022-08-21T07:00:51;101142.22;;;20.15;100.00
69850;BME280;57144;39.652;-75.770;2022-08-21T07:03:22;101139.86;;;20.04;100.00
69850;BME280;57144;39.652;-75.770;2022-08-21T07:05:51;101143.01;;;19.99;100.00
69850;BME280;57144;39.652;-75.770;2022-08-21T07:08:22;101143.40;;;20.13;100.00
69850;BME280;57144;39.652;-75.770;2022-08-21T07:10:56;101144.99;;;20.00;100.00
69850;BME280;57144;39.652;-75.770;2022-08-21T07:13:23;101148.78;;;20.02;100.00
69850;BME280;57144;39.652;-75.770;2022-08-21T07:15:54;101149.23;;;20.02;100.00
69850;BME280;57144;39.652;-75.770;2022-08-21T07:18:24;101149.75;;;20.04;100.00
69850;BME280;57144;39.652;-75.770;2022-08-21T07:20:55;101155.90;;;20.10;100.00
69850;BME280;57144;39.652;-75.770;2022-08-21T07:23:29;101155.39;;;19.72;100.00
69850;BME280;57144;39.652;-75.770;2022-08-21T07:25:56;101160.43;;;19.87;100.00
69850;BME280;57144;39.652;-75.770;2022-08-21T07:28:26;101167.38;;;19.95;100.00
69850;BME280;57144;39.652;-75.770;2022-08-21T07:30:59;101167.01;;;19.90;100.00
69850;BME280;57144;39.652;-75.770;2022-08-21T07:33:30;101170.07;;;20.05;100.00
69850;BME280;57144;39.652;-75.770;2022-08-21T07:35:58;101172.64;;;19.93;100.00
69850;BME280;57144;39.652;-75.770;2022-08-21T07:38:29;101171.90;;;20.04;100.00
69850;BME280;57144;39.652;-75.770;2022-08-21T07:41:01;101168.49;;;19.88;100.00
69850;BME280;57144;39.652;-75.770;2022-08-21T07:43:30;101169.72;;;19.96;100.00
69850;BME280;57144;39.652;-75.770;2022-08-21T07:46:01;101170.44;;;19.89;100.00
69850;BME280;57144;39.652;-75.770;2022-08-21T07:48:31;101174.06;;;19.91;100.00
69850;BME280;57144;39.652;-75.770;2022-08-21T07:51:06;101179.77;;;19.60;100.00
69850;BME280;57144;39.652;-75.770;2022-08-21T07:53:32;101183.04;;;19.69;100.00
69850;BME280;57144;39.652;-75.770;2022-08-21T07:56:03;101183.01;;;19.75;100.00
69850;BME280;57144;39.652;-75.770;2022-08-21T07:58:33;101175.63;;;19.83;100.00
69850;BME280;57144;39.652;-75.770;2022-08-21T08:01:05;101173.25;;;19.75;100.00
69850;BME280;57144;39.652;-75.770;2022-08-21T08:03:34;101174.38;;;19.64;100.00
69850;BME280;57144;39.652;-75.770;2022-08-21T08:06:05;101176.43;;;19.83;100.00
69850;BME280;57144;39.652;-75.770;2022-08-21T08:08:35;101174.66;;;19.93;100.00
69850;BME280;57144;39.652;-75.770;2022-08-21T08:11:06;101169.54;;;19.89;100.00
69850;BME280;57144;39.652;-75.770;2022-08-21T08:13:39;101167.55;;;19.85;100.00
69850;BME280;57144;39.652;-75.770;2022-08-21T08:16:07;101169.25;;;19.82;100.00
69850;BME280;57144;39.652;-75.770;2022-08-21T08:18:37;101170.74;;;19.74;100.00
69850;BME280;57144;39.652;-75.770;2022-08-21T08:21:08;101170.55;;;19.85;100.00
69850;BME280;57144;39.652;-75.770;2022-08-21T08:23:38;101167.09;;;19.54;100.00
69850;BME280;57144;39.652;-75.770;2022-08-21T08:26:09;101162.23;;;19.61;100.00
69850;BME280;57144;39.652;-75.770;2022-08-21T08:28:40;101165.05;;;19.80;100.00
69850;BME280;57144;39.652;-75.770;2022-08-21T08:31:10;101170.76;;;19.80;100.00
69850;BME280;57144;39.652;-75.770;2022-08-21T08:33:41;101174.00;;;19.84;100.00
69850;BME280;57144;39.652;-75.770;2022-08-21T08:36:14;101174.25;;;19.72;100.00
69850;BME280;57144;39.652;-75.770;2022-08-21T08:38:42;101173.24;;;19.69;100.00
69850;BME280;57144;39.652;-75.770;2022-08-21T08:41:15;101173.28;;;19.56;100.00
69850;BME280;57144;39.652;-75.770;2022-08-21T08:43:49;101175.79;;;19.51;100.00
69850;BME280;57144;39.652;-75.770;2022-08-21T08:46:16;101175.02;;;19.69;100.00
69850;BME280;57144;39.652;-75.770;2022-08-21T08:48:50;101176.94;;;19.80;100.00
69850;BME280;57144;39.652;-75.770;2022-08-21T08:51:21;101176.13;;;19.55;100.00
69850;BME280;57144;39.652;-75.770;2022-08-21T08:53:50;101177.95;;;19.66;100.00
69850;BME280;57144;39.652;-75.770;2022-08-21T08:56:18;101181.47;;;19.54;100.00
69850;BME280;57144;39.652;-75.770;2022-08-21T08:58:47;101185.73;;;19.37;100.00
69850;BME280;57144;39.652;-75.770;2022-08-21T09:01:19;101187.67;;;19.17;100.00
69850;BME280;57144;39.652;-75.770;2022-08-21T09:03:48;101195.13;;;19.51;100.00
69850;BME280;57144;39.652;-75.770;2022-08-21T09:06:34;101197.65;;;19.55;100.00
69850;BME280;57144;39.652;-75.770;2022-08-21T09:08:59;101199.78;;;19.75;100.00
69850;BME280;57144;39.652;-75.770;2022-08-21T09:11:26;101199.92;;;19.61;100.00
69850;BME280;57144;39.652;-75.770;2022-08-21T09:13:55;101194.19;;;19.75;100.00
69850;BME280;57144;39.652;-75.770;2022-08-21T09:16:27;101196.49;;;19.50;100.00
69850;BME280;57144;39.652;-75.770;2022-08-21T09:18:57;101195.95;;;19.49;100.00
69850;BME280;57144;39.652;-75.770;2022-08-21T09:21:28;101186.55;;;19.85;100.00
69850;BME280;57144;39.652;-75.770;2022-08-21T09:24:01;101185.48;;;19.74;100.00
69850;BME280;57144;39.652;-75.770;2022-08-21T09:26:26;101186.29;;;19.87;100.00
69850;BME280;57144;39.652;-75.770;2022-08-21T09:28:54;101189.48;;;19.67;100.00
69850;BME280;57144;39.652;-75.770;2022-08-21T09:31:26;101184.94;;;19.68;100.00
69850;BME280;57144;39.652;-75.770;2022-08-21T09:33:58;101179.99;;;19.88;100.00
69850;BME280;57144;39.652;-75.770;2022-08-21T09:36:35;101180.20;;;19.91;100.00
69850;BME280;57144;39.652;-75.770;2022-08-21T09:38:55;101176.89;;;19.94;100.00
69850;BME280;57144;39.652;-75.770;2022-08-21T09:41:28;101169.92;;;19.83;100.00
69850;BME280;57144;39.652;-75.770;2022-08-21T09:43:57;101172.15;;;20.01;100.00
69850;BME280;57144;39.652;-75.770;2022-08-21T09:46:27;101168.97;;;19.91;100.00
69850;BME280;57144;39.652;-75.770;2022-08-21T09:48:59;101164.95;;;19.68;100.00
69850;BME280;57144;39.652;-75.770;2022-08-21T09:51:30;101168.47;;;19.73;100.00
69850;BME280;57144;39.652;-75.770;2022-08-21T09:56:33;101181.93;;;19.70;100.00
69850;BME280;57144;39.652;-75.770;2022-08-21T09:59:00;101181.59;;;19.70;100.00
69850;BME280;57144;39.652;-75.770;2022-08-21T10:01:30;101181.28;;;19.21;100.00
69850;BME280;57144;39.652;-75.770;2022-08-21T10:04:03;101181.52;;;19.35;100.00
69850;BME280;57144;39.652;-75.770;2022-08-21T10:06:31;101186.66;;;19.11;100.00
69850;BME280;57144;39.652;-75.770;2022-08-21T10:09:06;101190.55;;;19.66;100.00
69850;BME280;57144;39.652;-75.770;2022-08-21T10:11:33;101191.85;;;19.07;100.00
69850;BME280;57144;39.652;-75.770;2022-08-21T10:14:13;101193.71;;;19.25;100.00
69850;BME280;57144;39.652;-75.770;2022-08-21T10:16:40;101192.74;;;19.51;100.00
69850;BME280;57144;39.652;-75.770;2022-08-21T10:19:14;101192.24;;;19.64;100.00
69850;BME280;57144;39.652;-75.770;2022-08-21T10:21:44;101192.31;;;19.06;100.00
69850;BME280;57144;39.652;-75.770;2022-08-21T10:24:11;101187.35;;;19.21;100.00
69850;BME280;57144;39.652;-75.770;2022-08-21T10:26:44;101188.48;;;19.10;100.00
69850;BME280;57144;39.652;-75.770;2022-08-21T10:29:12;101194.53;;;19.40;100.00
69850;BME280;57144;39.652;-75.770;2022-08-21T10:34:17;101192.09;;;19.29;100.00
69850;BME280;57144;39.652;-75.770;2022-08-21T10:36:42;101189.96;;;19.55;100.00
69850;BME280;57144;39.652;-75.770;2022-08-21T10:39:17;101186.44;;;19.72;100.00
69850;BME280;57144;39.652;-75.770;2022-08-21T10:41:52;101186.31;;;19.66;100.00
69850;BME280;57144;39.652;-75.770;2022-08-21T10:44:17;101186.98;;;19.45;100.00
69850;BME280;57144;39.652;-75.770;2022-08-21T10:46:50;101188.75;;;19.53;100.00
69850;BME280;57144;39.652;-75.770;2022-08-21T10:49:21;101194.12;;;19.64;100.00
69850;BME280;57144;39.652;-75.770;2022-08-21T10:51:46;101198.23;;;19.54;100.00
69850;BME280;57144;39.652;-75.770;2022-08-21T10:54:18;101203.65;;;19.95;100.00
69850;BME280;57144;39.652;-75.770;2022-08-21T10:56:43;101207.01;;;19.57;100.00
69850;BME280;57144;39.652;-75.770;2022-08-21T10:59:25;101208.89;;;19.96;100.00
69850;BME280;57144;39.652;-75.770;2022-08-21T11:01:49;101210.48;;;20.02;100.00
69850;BME280;57144;39.652;-75.770;2022-08-21T11:04:20;101215.60;;;20.12;100.00
69850;BME280;57144;39.652;-75.770;2022-08-21T11:06:49;101212.85;;;19.39;100.00
69850;BME280;57144;39.652;-75.770;2022-08-21T11:09:18;101207.84;;;19.73;100.00
69850;BME280;57144;39.652;-75.770;2022-08-21T11:11:52;101209.58;;;19.17;100.00
69850;BME280;57144;39.652;-75.770;2022-08-21T11:14:24;101215.33;;;19.09;100.00
69850;BME280;57144;39.652;-75.770;2022-08-21T11:16:56;101215.90;;;19.94;100.00
69850;BME280;57144;39.652;-75.770;2022-08-21T11:19:22;101219.79;;;20.03;100.00
69850;BME280;57144;39.652;-75.770;2022-08-21T11:21:54;101226.25;;;20.32;100.00
69850;BME280;57144;39.652;-75.770;2022-08-21T11:24:29;101223.28;;;20.73;100.00
69850;BME280;57144;39.652;-75.770;2022-08-21T11:26:56;101227.56;;;19.64;100.00
69850;BME280;57144;39.652;-75.770;2022-08-21T11:29:26;101235.17;;;20.62;100.00
69850;BME280;57144;39.652;-75.770;2022-08-21T11:32:01;101237.25;;;20.44;100.00
69850;BME280;57144;39.652;-75.770;2022-08-21T11:34:30;101227.39;;;19.70;100.00
69850;BME280;57144;39.652;-75.770;2022-08-21T11:36:58;101224.52;;;20.38;100.00
69850;BME280;57144;39.652;-75.770;2022-08-21T11:39:32;101227.41;;;20.51;100.00
69850;BME280;57144;39.652;-75.770;2022-08-21T11:42:00;101231.49;;;19.77;100.00
69850;BME280;57144;39.652;-75.770;2022-08-21T11:44:31;101231.85;;;19.47;100.00
69850;BME280;57144;39.652;-75.770;2022-08-21T11:47:02;101237.15;;;19.19;100.00
69850;BME280;57144;39.652;-75.770;2022-08-21T11:49:36;101242.43;;;19.58;100.00
69850;BME280;57144;39.652;-75.770;2022-08-21T11:52:05;101248.04;;;19.37;100.00
69850;BME280;57144;39.652;-75.770;2022-08-21T11:54:30;101249.21;;;19.48;100.00
69850;BME280;57144;39.652;-75.770;2022-08-21T11:57:01;101249.16;;;19.04;100.00
69850;BME280;57144;39.652;-75.770;2022-08-21T11:59:35;101242.28;;;19.63;100.00
69850;BME280;57144;39.652;-75.770;2022-08-21T12:01:58;101237.86;;;19.94;100.00
69850;BME280;57144;39.652;-75.770;2022-08-21T12:04:31;101230.12;;;19.96;100.00
69850;BME280;57144;39.652;-75.770;2022-08-21T12:09:33;101218.57;;;19.96;100.00
69850;BME280;57144;39.652;-75.770;2022-08-21T12:12:04;101218.66;;;20.00;100.00
69850;BME280;57144;39.652;-75.770;2022-08-21T12:14:36;101215.18;;;19.08;100.00
69850;BME280;57144;39.652;-75.770;2022-08-21T12:17:05;101213.94;;;19.80;100.00
69850;BME280;57144;39.652;-75.770;2022-08-21T12:19:32;101211.98;;;19.60;100.00
69850;BME280;57144;39.652;-75.770;2022-08-21T12:22:08;101210.89;;;19.98;100.00
69850;BME280;57144;39.652;-75.770;2022-08-21T12:24:36;101212.22;;;19.79;100.00
69850;BME280;57144;39.652;-75.770;2022-08-21T12:29:37;101209.37;;;18.69;100.00
69850;BME280;57144;39.652;-75.770;2022-08-21T12:34:36;101211.80;;;19.31;100.00
69850;BME280;57144;39.652;-75.770;2022-08-21T12:37:14;101213.22;;;19.46;100.00
69850;BME280;57144;39.652;-75.770;2022-08-21T12:39:38;101217.11;;;19.73;100.00
69850;BME280;57144;39.652;-75.770;2022-08-21T12:42:16;101217.86;;;19.85;100.00
69850;BME280;57144;39.652;-75.770;2022-08-21T12:44:42;101217.70;;;19.85;100.00
69850;BME280;57144;39.652;-75.770;2022-08-21T12:47:15;101219.24;;;19.85;100.00
69850;BME280;57144;39.652;-75.770;2022-08-21T12:49:48;101217.78;;;20.79;100.00
69850;BME280;57144;39.652;-75.770;2022-08-21T12:52:13;101215.27;;;20.36;100.00